Time;durP1;ratioP1;P1;durP2;ratioP2;P2;SDS_P1;SDS_P2;PMS_P1;PMS_P2;Temp;Humidity;BMP_temperature;BMP_pressure;BME280_temperature;BME280_humidity;BME280_pressure;Samples;Min_cycle;Max_cycle;Signal;HPM_P1;HPM_P2
2021/10/07 00:00:36;;;;;;;20.72;9.83;;;;;;;12.37;80.92;101363.85;1649336;87;21032;-81
2021/10/07 00:03:04;;;;;;;18.07;8.68;;;;;;;12.37;80.91;101359.84;1649797;87;21123;-81
2021/10/07 00:05:30;;;;;;;18.50;8.50;;;;;;;12.38;80.89;101362.02;1649014;87;21083;-81
2021/10/07 00:07:57;;;;;;;15.40;8.33;;;;;;;12.38;80.89;101360.19;1613323;88;21041;-81
2021/10/07 00:10:23;;;;;;;12.53;8.43;;;;;;;12.39;80.87;101355.65;1593411;90;21582;-81
2021/10/07 00:12:49;;;;;;;13.98;8.93;;;;;;;12.37;80.88;101356.32;1661464;86;21111;-82
2021/10/07 00:15:15;;;;;;;13.58;9.03;;;;;;;12.36;80.84;101358.16;1661261;86;21094;-81
2021/10/07 00:17:41;;;;;;;12.65;8.48;;;;;;;12.35;80.85;101360.48;1661445;86;21508;-81
2021/10/07 00:20:10;;;;;;;14.05;8.03;;;;;;;12.34;80.85;101364.17;1661539;86;21038;-81
2021/10/07 00:22:38;;;;;;;15.85;8.70;;;;;;;12.34;80.84;101364.17;1661560;86;21536;-81
2021/10/07 00:25:07;;;;;;;12.15;8.75;;;;;;;12.34;80.84;101362.84;1661441;86;21030;-81
2021/10/07 00:27:35;;;;;;;15.93;9.43;;;;;;;12.35;80.83;101361.81;1661693;86;28145;-81
2021/10/07 00:30:10;;;;;;;15.28;8.88;;;;;;;12.35;80.83;101363.16;1661639;86;21018;-81
2021/10/07 00:32:36;;;;;;;18.87;9.35;;;;;;;12.37;80.84;101364.34;1623341;87;21054;-81
2021/10/07 00:40:07;;;;;;;19.75;9.93;;;;;;;12.37;80.79;101355.83;1623440;88;21030;-81
2021/10/07 00:42:33;;;;;;;19.05;10.05;;;;;;;12.38;80.77;101357.52;1623148;88;21077;-81
2021/10/07 00:44:59;;;;;;;15.18;10.18;;;;;;;12.38;80.75;101358.85;1622692;88;21093;-81
2021/10/07 00:47:25;;;;;;;14.90;9.30;;;;;;;12.38;80.74;101360.19;1620382;88;21231;-81
2021/10/07 00:49:51;;;;;;;18.82;10.20;;;;;;;12.37;80.72;101357.16;1620616;87;21125;-81
2021/10/07 00:52:18;;;;;;;17.25;9.90;;;;;;;12.38;80.71;101363.36;1620750;88;21105;-81
2021/10/07 00:54:49;;;;;;;17.82;9.53;;;;;;;12.36;80.71;101359.48;1620765;88;21033;-81
2021/10/07 00:57:19;;;;;;;16.73;10.15;;;;;;;12.36;80.69;101358.64;1644415;87;21031;-81
2021/10/07 00:59:48;;;;;;;;;;;;;;;12.35;80.68;101360.48;1648939;87;21115;-81
2021/10/07 01:02:15;;;;;;;16.52;10.55;;;;;;;12.35;80.68;101365.83;1646501;87;20181;-81
2021/10/07 01:04:41;;;;;;;17.82;10.50;;;;;;;12.31;80.67;101369.84;1585821;90;21051;-81
2021/10/07 01:07:08;;;;;;;15.80;11.05;;;;;;;12.29;80.66;101362.95;1614064;89;21095;-81
2021/10/07 01:09:34;;;;;;;15.78;10.58;;;;;;;12.29;80.69;101363.79;1612138;89;21031;-81
2021/10/07 01:12:01;;;;;;;18.05;10.68;;;;;;;12.26;80.69;101354.75;1612391;89;21838;-81
2021/10/07 01:14:58;;;;;;;15.15;10.95;;;;;;;12.25;80.71;101355.73;1612289;88;21055;-81
2021/10/07 01:17:30;;;;;;;21.52;11.70;;;;;;;12.22;80.70;101350.70;1612112;89;21036;-81
2021/10/07 01:19:59;;;;;;;18.77;10.93;;;;;;;12.20;80.72;101351.87;1612301;89;21122;-81
2021/10/07 01:22:26;;;;;;;16.20;10.50;;;;;;;12.18;80.73;101350.67;1612015;88;21082;-81
2021/10/07 01:24:52;;;;;;;18.90;10.82;;;;;;;12.15;80.76;101349.66;1612237;88;21174;-81
2021/10/07 01:27:21;;;;;;;19.87;11.33;;;;;;;12.12;80.76;101350.47;1612215;89;21102;-81
2021/10/07 01:29:55;;;;;;;17.63;10.77;;;;;;;12.09;80.75;101352.97;1612525;88;21063;-81
2021/10/07 01:32:21;;;;;;;20.15;11.53;;;;;;;12.05;80.78;101352.93;1612083;89;21031;-81
2021/10/07 01:34:47;;;;;;;18.87;11.15;;;;;;;12.03;80.79;101358.95;1612343;88;21050;-81
2021/10/07 01:37:13;;;;;;;22.00;13.00;;;;;;;12.02;80.82;101363.94;1612273;89;21537;-81
2021/10/07 01:39:39;;;;;;;19.00;12.50;;;;;;;12.00;80.85;101360.56;1612129;89;21108;-81
2021/10/07 01:42:05;;;;;;;16.93;11.50;;;;;;;12.00;80.88;101366.75;1612293;89;21039;-81
2021/10/07 01:44:31;;;;;;;19.37;12.03;;;;;;;12.00;80.91;101365.91;1612402;89;20940;-81
2021/10/07 01:46:57;;;;;;;18.73;12.05;;;;;;;11.99;80.93;101367.77;1612877;88;21052;-82
2021/10/07 01:49:23;;;;;;;18.57;11.63;;;;;;;11.99;80.93;101371.78;1612091;89;21228;-81
2021/10/07 01:51:49;;;;;;;18.92;11.40;;;;;;;11.96;80.94;101372.59;1612231;89;21118;-81
2021/10/07 01:54:15;;;;;;;18.27;11.57;;;;;;;11.97;80.98;101371.57;1612258;89;21099;-81
2021/10/07 01:56:41;;;;;;;25.82;17.73;;;;;;;11.94;80.99;101375.41;1612165;89;21023;-82
2021/10/07 01:59:08;;;;;;;29.42;16.67;;;;;;;11.92;80.99;101372.55;1612304;88;21130;-81
2021/10/07 02:01:34;;;;;;;20.08;11.50;;;;;;;11.90;81.01;101373.19;1612272;89;21169;-81
2021/10/07 02:04:01;;;;;;;14.55;10.28;;;;;;;11.87;81.03;101370.83;1612171;88;21119;-81
2021/10/07 02:06:28;;;;;;;21.10;11.63;;;;;;;11.83;81.02;101382.33;1612296;89;21125;-82
2021/10/07 02:08:55;;;;;;;21.20;11.90;;;;;;;11.80;81.04;101386.64;1612577;88;21027;-82
2021/10/07 02:11:21;;;;;;;22.50;12.88;;;;;;;11.80;81.06;101393.81;1612966;88;21107;-81
2021/10/07 02:13:47;;;;;;;24.85;11.43;;;;;;;11.79;81.05;101390.30;1612212;88;21126;-82
2021/10/07 02:16:13;;;;;;;21.65;11.60;;;;;;;11.79;81.06;101392.13;1612260;89;21874;-81
2021/10/07 02:18:39;;;;;;;18.52;11.88;;;;;;;11.77;81.08;101390.12;1612331;89;21594;-81
2021/10/07 02:21:06;;;;;;;20.88;11.60;;;;;;;11.76;81.06;101385.76;1612193;89;21028;-81
2021/10/07 02:23:32;;;;;;;19.55;12.20;;;;;;;11.74;81.07;101385.92;1612267;89;21046;-81
2021/10/07 02:25:58;;;;;;;24.15;12.82;;;;;;;11.69;81.07;101386.84;1612185;89;21165;-81
2021/10/07 02:28:24;;;;;;;22.05;12.68;;;;;;;11.65;81.06;101389.95;1612143;88;21087;-81
2021/10/07 02:30:50;;;;;;;23.77;12.53;;;;;;;11.62;81.09;101387.59;1612297;89;21007;-81
2021/10/07 02:33:16;;;;;;;20.40;11.73;;;;;;;11.57;81.12;101387.23;1612171;89;21515;-81
2021/10/07 02:35:42;;;;;;;21.17;12.45;;;;;;;11.49;81.12;101406.19;1612378;88;21070;-81
2021/10/07 02:38:08;;;;;;;21.65;12.68;;;;;;;11.43;81.11;101401.95;1612218;89;21174;-81
2021/10/07 02:40:34;;;;;;;19.95;13.45;;;;;;;11.37;81.16;101405.20;1612267;88;21015;-81
2021/10/07 02:43:00;;;;;;;22.02;12.82;;;;;;;11.32;81.18;101403.00;1612150;89;21087;-82
2021/10/07 02:45:27;;;;;;;23.98;15.38;;;;;;;11.28;81.20;101409.63;1611507;87;21059;-80
2021/10/07 02:47:53;;;;;;;26.30;15.23;;;;;;;11.22;81.23;101418.25;1603191;89;21112;-81
2021/10/07 02:50:21;;;;;;;26.75;16.80;;;;;;;11.20;81.25;101426.03;1603417;89;21218;-80
2021/10/07 02:52:47;;;;;;;27.82;18.00;;;;;;;11.13;81.29;101429.80;1603128;89;21113;-80
2021/10/07 02:55:13;;;;;;;29.70;17.12;;;;;;;11.08;81.33;101428.09;1603294;89;21036;-81
2021/10/07 02:57:45;;;;;;;22.65;14.68;;;;;;;11.04;81.34;101429.37;1603113;89;21096;-81
2021/10/07 03:00:11;;;;;;;18.55;14.03;;;;;;;10.96;81.37;101428.77;1603020;89;21095;-81
2021/10/07 03:02:37;;;;;;;21.95;14.43;;;;;;;10.93;81.43;101426.88;1582400;90;21704;-81
2021/10/07 03:05:04;;;;;;;20.23;11.73;;;;;;;10.89;81.45;101429.49;1596037;90;21548;-81
2021/10/07 03:07:30;;;;;;;23.77;14.00;;;;;;;10.79;81.46;101431.36;1603229;89;21107;-81
2021/10/07 03:09:56;;;;;;;25.77;14.55;;;;;;;10.73;81.54;101433.28;1602971;89;21039;-81
2021/10/07 03:12:22;;;;;;;19.70;13.20;;;;;;;10.71;81.58;101440.58;1603251;89;21071;-81
2021/10/07 03:14:48;;;;;;;25.48;14.10;;;;;;;10.68;81.61;101442.20;1603176;89;21048;-81
2021/10/07 03:17:16;;;;;;;20.37;14.93;;;;;;;10.65;81.61;101448.68;1603071;89;21055;-81
2021/10/07 03:19:43;;;;;;;21.77;15.43;;;;;;;10.59;81.67;101445.75;1603192;89;21067;-81
2021/10/07 03:22:09;;;;;;;22.10;15.83;;;;;;;10.53;81.71;101445.33;1602987;89;21091;-81
2021/10/07 03:24:35;;;;;;;25.77;14.50;;;;;;;10.46;81.75;101446.89;1603349;89;21067;-81
2021/10/07 03:27:03;;;;;;;19.62;13.95;;;;;;;10.39;81.77;101445.78;1604653;89;21096;-81
2021/10/07 03:29:30;;;;;;;24.05;16.23;;;;;;;10.37;81.82;101450.91;1605986;88;21048;-81
2021/10/07 03:31:56;;;;;;;24.52;15.45;;;;;;;10.34;81.84;101454.72;1605891;89;21059;-81
2021/10/07 03:34:22;;;;;;;25.45;17.95;;;;;;;10.28;81.87;101460.59;1605933;89;21080;-81
2021/10/07 03:36:48;;;;;;;26.60;17.82;;;;;;;10.21;81.91;101462.14;1605985;89;21584;-81
2021/10/07 03:39:14;;;;;;;27.40;16.57;;;;;;;10.16;81.96;101458.23;1606094;89;21802;-81
2021/10/07 03:41:40;;;;;;;24.40;15.15;;;;;;;10.11;81.99;101465.28;1605927;88;21683;-80
2021/10/07 03:44:06;;;;;;;24.67;16.73;;;;;;;10.04;82.00;101468.16;1606034;89;21115;-80
2021/10/07 03:46:32;;;;;;;28.30;18.65;;;;;;;9.99;82.03;101466.42;1611723;88;21046;-81
2021/10/07 03:48:59;;;;;;;29.63;25.92;;;;;;;9.93;82.08;101466.95;1595059;90;21113;-81
2021/10/07 03:51:25;;;;;;;19.00;14.73;;;;;;;9.86;82.08;101471.16;1591869;90;21104;-81
2021/10/07 03:53:51;;;;;;;17.07;12.13;;;;;;;9.80;82.11;101478.38;1621834;88;21092;-80
2021/10/07 03:56:17;;;;;;;20.20;12.68;;;;;;;9.74;82.15;101477.61;1595154;88;21113;-81
2021/10/07 03:58:43;;;;;;;20.10;11.33;;;;;;;9.73;82.18;101481.24;1621926;88;21491;-80
2021/10/07 04:01:09;;;;;;;22.98;12.63;;;;;;;9.73;82.23;101483.91;1595017;88;21091;-81
2021/10/07 04:03:35;;;;;;;19.95;11.78;;;;;;;9.69;82.23;101483.83;1595091;90;21112;-81
2021/10/07 04:06:01;;;;;;;18.50;11.80;;;;;;;9.67;82.29;101488.46;1594987;90;21107;-81
2021/10/07 04:08:27;;;;;;;18.42;10.82;;;;;;;9.64;82.32;101485.56;1595155;90;21091;-81
2021/10/07 04:10:53;;;;;;;20.82;13.53;;;;;;;9.58;82.35;101481.28;1621663;87;21091;-81
2021/10/07 04:13:20;;;;;;;21.77;13.62;;;;;;;9.52;82.39;101490.66;1595152;90;21047;-81
2021/10/07 04:15:46;;;;;;;21.33;13.25;;;;;;;9.50;82.44;101498.78;1615098;88;21791;-81
2021/10/07 04:18:14;;;;;;;24.90;14.43;;;;;;;9.48;82.48;101496.75;1595053;90;21118;-81
2021/10/07 04:20:41;;;;;;;22.17;13.98;;;;;;;9.47;82.51;101503.05;1621731;88;21070;-80
2021/10/07 04:23:08;;;;;;;21.65;13.88;;;;;;;9.46;82.54;101499.20;1595099;90;21035;-80
2021/10/07 04:25:34;;;;;;;16.82;12.35;;;;;;;9.44;82.57;101499.81;1621937;88;21083;-81
2021/10/07 04:28:01;;;;;;;23.35;13.32;;;;;;;9.43;82.61;101508.77;1595120;90;21093;-81
2021/10/07 04:30:27;;;;;;;21.70;12.85;;;;;;;9.40;82.63;101509.89;1595018;90;21546;-81
2021/10/07 04:32:54;;;;;;;19.12;13.25;;;;;;;9.36;82.68;101505.81;1622015;88;21090;-80
2021/10/07 04:35:20;;;;;;;18.82;12.63;;;;;;;9.32;82.71;101507.05;1594799;90;21095;-81
2021/10/07 04:37:46;;;;;;;17.05;12.98;;;;;;;9.28;82.75;101505.66;1595229;90;21114;-80
2021/10/07 04:40:12;;;;;;;26.23;13.80;;;;;;;9.24;82.78;101505.57;1619967;88;22273;-81
2021/10/07 04:42:38;;;;;;;21.25;12.28;;;;;;;9.18;82.80;101498.13;1592357;90;21094;-80
2021/10/07 04:45:04;;;;;;;26.25;14.13;;;;;;;9.15;82.83;101502.36;1592177;90;21110;-80
2021/10/07 04:47:30;;;;;;;22.58;13.90;;;;;;;9.14;82.87;101510.50;1599175;87;21535;-80
2021/10/07 04:49:56;;;;;;;28.38;13.43;;;;;;;9.10;82.89;101517.91;1603302;89;21718;-81
2021/10/07 04:52:22;;;;;;;25.43;12.65;;;;;;;9.08;82.91;101517.17;1603309;89;21717;-80
2021/10/07 04:54:48;;;;;;;20.17;12.28;;;;;;;9.04;82.88;101525.09;1603205;89;21785;-81
2021/10/07 04:57:14;;;;;;;21.45;12.58;;;;;;;9.02;82.98;101528.36;1603272;89;21043;-80
2021/10/07 04:59:40;;;;;;;26.20;14.33;;;;;;;8.99;82.98;101532.62;1603206;89;21055;-81
2021/10/07 05:02:06;;;;;;;23.80;13.75;;;;;;;8.97;83.02;101538.57;1603308;89;21120;-80
2021/10/07 05:04:32;;;;;;;22.02;14.85;;;;;;;8.96;83.04;101542.20;1603421;89;21178;-81
2021/10/07 05:06:58;;;;;;;21.87;15.00;;;;;;;8.93;83.06;101541.98;1598782;89;21566;-81
2021/10/07 05:09:24;;;;;;;21.60;13.95;;;;;;;8.93;83.09;101548.63;1640161;87;21529;-81
2021/10/07 05:11:50;;;;;;;21.87;14.50;;;;;;;8.91;83.12;101543.06;1639844;87;21136;-80
2021/10/07 05:14:16;;;;;;;25.23;14.30;;;;;;;8.89;83.13;101549.86;1640149;87;21569;-80
2021/10/07 05:16:42;;;;;;;21.05;14.75;;;;;;;8.89;83.17;101550.34;1640097;86;21805;-81
2021/10/07 05:19:08;;;;;;;23.92;14.40;;;;;;;8.87;83.19;101545.63;1639974;87;21036;-81
2021/10/07 05:21:35;;;;;;;27.65;15.25;;;;;;;8.85;83.24;101556.89;1640015;87;21033;-81
2021/10/07 05:24:01;;;;;;;30.92;16.12;;;;;;;8.85;83.24;101552.91;1639994;87;21100;-81
2021/10/07 05:26:27;;;;;;;26.95;16.35;;;;;;;8.84;83.26;101555.20;1640233;87;21076;-81
2021/10/07 05:28:53;;;;;;;23.65;15.40;;;;;;;8.84;83.30;101563.18;1639997;87;21872;-81
2021/10/07 05:31:19;;;;;;;40.03;18.10;;;;;;;8.83;83.33;101559.67;1641258;86;21699;-81
2021/10/07 05:33:45;;;;;;;27.40;19.00;;;;;;;8.85;83.36;101559.55;1644549;87;21048;-81
2021/10/07 05:36:11;;;;;;;32.55;20.20;;;;;;;8.84;83.40;101561.84;1644674;87;21104;-81
2021/10/07 05:38:37;;;;;;;34.15;22.35;;;;;;;8.84;83.42;101563.18;1644451;87;21060;-81
2021/10/07 05:41:04;;;;;;;28.23;20.75;;;;;;;8.84;83.43;101568.02;1644648;87;21833;-80
2021/10/07 05:43:30;;;;;;;35.78;21.02;;;;;;;8.87;83.46;101570.41;1644421;87;21052;-81
2021/10/07 05:45:56;;;;;;;35.63;19.23;;;;;;;8.93;83.48;101569.06;1644477;87;21048;-81
2021/10/07 05:48:22;;;;;;;28.17;18.45;;;;;;;9.01;83.51;101572.74;1646369;86;21057;-80
2021/10/07 05:50:48;;;;;;;38.95;18.32;;;;;;;9.08;83.53;101570.39;1646934;87;21048;-81
2021/10/07 05:53:14;;;;;;;28.73;17.27;;;;;;;9.17;83.57;101569.63;1646955;86;21820;-81
2021/10/07 05:55:40;;;;;;;28.90;18.05;;;;;;;9.23;83.58;101574.41;1646216;87;21136;-81
2021/10/07 05:58:06;;;;;;;38.00;18.85;;;;;;;9.31;83.62;101577.27;1616466;88;21069;-81
2021/10/07 06:00:32;;;;;;;23.47;17.67;;;;;;;9.41;83.63;101580.80;1603814;89;21072;-81
2021/10/07 06:02:58;;;;;;;31.15;17.65;;;;;;;9.45;83.67;101584.89;1603932;89;21112;-80
2021/10/07 06:05:25;;;;;;;28.87;19.07;;;;;;;9.54;83.72;101586.73;1604020;89;21133;-81
2021/10/07 06:07:51;;;;;;;30.17;19.90;;;;;;;9.65;83.75;101584.95;1603963;89;21537;-81
2021/10/07 06:10:17;;;;;;;32.60;16.67;;;;;;;9.76;83.79;101587.52;1603992;89;21101;-80
2021/10/07 06:12:43;;;;;;;28.17;18.42;;;;;;;9.86;83.85;101591.89;1603702;89;21044;-81
2021/10/07 06:15:10;;;;;;;28.23;16.67;;;;;;;9.95;83.86;101588.92;1603868;89;21065;-81
2021/10/07 06:17:37;;;;;;;32.80;19.50;;;;;;;10.02;83.91;101588.72;1603955;89;21198;-81
2021/10/07 06:20:19;;;;;;;26.93;18.23;;;;;;;10.10;83.92;101594.19;1603947;89;21526;-80
2021/10/07 06:22:36;;;;;;;32.20;18.90;;;;;;;10.16;83.95;101599.02;1579035;90;21533;-81
2021/10/07 06:25:02;;;;;;;30.25;17.92;;;;;;;10.22;83.99;101601.12;1586425;90;21115;-81
2021/10/07 06:27:28;;;;;;;30.27;18.73;;;;;;;10.28;83.98;101605.90;1581213;90;21138;-82
2021/10/07 06:29:55;;;;;;;33.08;21.00;;;;;;;10.28;84.00;101603.23;1589052;88;21176;-82
2021/10/07 06:32:21;;;;;;;30.52;20.12;;;;;;;10.31;83.99;101616.28;1585530;90;21047;-82
2021/10/07 06:34:47;;;;;;;31.42;19.45;;;;;;;10.35;84.02;101611.03;1586142;90;21157;-82
2021/10/07 06:37:13;;;;;;;24.45;16.77;;;;;;;10.44;84.03;101608.03;1586271;90;21557;-82
2021/10/07 06:39:39;;;;;;;22.27;17.07;;;;;;;10.58;84.05;101614.77;1586322;90;21123;-82
2021/10/07 06:42:05;;;;;;;26.10;17.05;;;;;;;10.64;84.04;101615.53;1614814;88;21210;-82
2021/10/07 06:44:31;;;;;;;20.10;15.25;;;;;;;10.65;84.04;101610.56;1616135;88;21597;-83
2021/10/07 06:46:57;;;;;;;28.00;16.80;;;;;;;10.64;84.05;101611.54;1619514;87;21098;-82
2021/10/07 06:49:23;;;;;;;42.10;18.80;;;;;;;10.62;84.06;101616.19;1599856;89;21042;-83
2021/10/07 06:51:49;;;;;;;33.70;17.62;;;;;;;10.60;84.08;101617.64;1653390;86;21114;-83
2021/10/07 06:54:15;;;;;;;42.40;19.35;;;;;;;10.59;84.09;101620.47;1653769;86;21184;-82
2021/10/07 06:56:41;;;;;;;52.85;20.60;;;;;;;10.59;84.08;101621.80;1654575;86;21058;-82
2021/10/07 06:59:08;;;;;;;57.43;22.13;;;;;;;10.55;84.11;101628.39;1653962;86;21051;-82
2021/10/07 07:01:35;;;;;;;50.73;23.47;;;;;;;10.51;84.09;101626.02;1628259;86;39341;-83
2021/10/07 07:04:01;;;;;;;60.85;24.25;;;;;;;10.53;84.11;101622.70;1653332;86;21062;-83
2021/10/07 07:06:28;;;;;;;65.08;26.15;;;;;;;10.59;84.13;101632.47;1654013;86;21163;-82
2021/10/07 07:08:54;;;;;;;62.98;25.82;;;;;;;10.62;84.15;101634.86;1653513;86;21556;-83
2021/10/07 07:11:28;;;;;;;60.05;25.92;;;;;;;10.65;84.16;101639.91;1653801;86;21071;-82
2021/10/07 07:13:54;;;;;;;59.18;26.50;;;;;;;10.66;84.15;101642.94;1653253;86;21090;-82
2021/10/07 07:16:20;;;;;;;66.82;28.27;;;;;;;10.68;84.17;101648.47;1653248;86;21094;-82
2021/10/07 07:18:46;;;;;;;71.90;31.23;;;;;;;10.72;84.17;101653.89;1654007;86;21139;-82
2021/10/07 07:21:12;;;;;;;56.23;28.83;;;;;;;10.78;84.18;101648.47;1654086;86;21090;-82
2021/10/07 07:23:38;;;;;;;54.05;27.60;;;;;;;10.84;84.16;101651.41;1654133;86;21046;-83
2021/10/07 07:26:05;;;;;;;60.03;27.50;;;;;;;10.87;84.18;101650.31;1656209;85;21471;-82
2021/10/07 07:28:31;;;;;;;56.28;26.77;;;;;;;10.90;84.21;101658.03;1654015;86;21023;-82
2021/10/07 07:30:57;;;;;;;60.45;29.92;;;;;;;10.95;84.21;101657.09;1654156;86;21161;-82
2021/10/07 07:33:25;;;;;;;65.97;33.08;;;;;;;10.98;84.23;101659.48;1654369;86;21048;-82
2021/10/07 07:35:51;;;;;;;68.50;32.85;;;;;;;10.98;84.25;101659.48;1653341;86;21056;-82
2021/10/07 07:38:17;;;;;;;70.25;31.95;;;;;;;10.96;84.25;101662.30;1653833;86;21076;-83
2021/10/07 07:40:43;;;;;;;64.17;30.00;;;;;;;10.95;84.27;101669.11;1654324;86;21060;-82
2021/10/07 07:43:09;;;;;;;62.95;29.72;;;;;;;10.95;84.28;101667.77;1654004;86;21134;-82
2021/10/07 07:45:35;;;;;;;61.05;28.45;;;;;;;10.96;84.28;101669.47;1653982;86;21124;-82
2021/10/07 07:48:01;;;;;;;58.50;29.30;;;;;;;10.96;84.29;101665.47;1652503;86;21568;-82
2021/10/07 07:50:29;;;;;;;59.27;29.92;;;;;;;10.96;84.29;101670.80;1648495;85;21536;-82
2021/10/07 07:52:57;;;;;;;67.10;29.07;;;;;;;10.95;84.30;101673.11;1648932;85;21054;-81
2021/10/07 07:55:23;;;;;;;64.55;32.17;;;;;;;10.94;84.29;101678.13;1650770;85;21160;-82
2021/10/07 07:57:50;;;;;;;67.50;30.85;;;;;;;10.96;84.31;101681.48;1655037;85;21090;-81
2021/10/07 08:00:16;;;;;;;64.67;32.23;;;;;;;10.98;84.33;101682.16;1656658;85;21042;-83
2021/10/07 08:02:42;;;;;;;64.90;29.85;;;;;;;10.97;84.34;101683.17;1654442;84;21098;-81
2021/10/07 08:05:08;;;;;;;63.60;29.75;;;;;;;10.99;84.36;101682.52;1648606;85;21066;-81
2021/10/07 08:07:34;;;;;;;73.90;32.13;;;;;;;11.00;84.37;101686.41;1667735;85;21547;-82
2021/10/07 08:10:00;;;;;;;62.20;30.62;;;;;;;11.02;84.40;101685.76;1648550;85;21074;-82
2021/10/07 08:12:32;;;;;;;61.88;30.77;;;;;;;11.08;84.41;101690.19;1655654;85;21086;-85
2021/10/07 08:14:56;;;;;;;61.90;30.65;;;;;;;11.12;84.44;101695.09;1654993;85;21018;-84
2021/10/07 08:17:22;;;;;;;62.08;33.50;;;;;;;11.17;84.46;101696.85;1651514;85;21057;-85
2021/10/07 08:19:49;;;;;;;59.77;32.23;;;;;;;11.23;84.48;101699.44;1645903;85;21377;-85
2021/10/07 08:22:15;;;;;;;58.50;32.00;;;;;;;11.29;84.52;101694.87;1651863;85;21058;-85
2021/10/07 08:24:41;;;;;;;56.63;30.23;;;;;;;11.35;84.52;101703.16;1658689;85;21567;-84
2021/10/07 08:27:07;;;;;;;56.75;31.45;;;;;;;11.43;84.54;101699.26;1657037;85;21054;-86
2021/10/07 08:29:33;;;;;;;55.78;30.65;;;;;;;11.46;84.54;101694.98;1648019;85;21733;-84
2021/10/07 08:31:59;;;;;;;58.83;30.35;;;;;;;11.52;84.58;101693.56;1648620;85;21163;-84
2021/10/07 08:34:25;;;;;;;64.17;31.50;;;;;;;11.58;84.59;101698.80;1651954;85;21042;-85
2021/10/07 08:36:51;;;;;;;58.63;34.80;;;;;;;11.61;84.62;101697.20;1649308;85;21131;-85
2021/10/07 08:39:18;;;;;;;78.37;42.78;;;;;;;11.67;84.65;101693.45;1649168;85;21066;-82
2021/10/07 08:41:50;;;;;;;64.12;38.65;;;;;;;11.73;84.67;101693.39;1648214;85;21090;-82
2021/10/07 08:44:18;;;;;;;88.50;47.27;;;;;;;11.80;84.67;101691.81;1651406;85;21256;-82
2021/10/07 08:46:52;;;;;;;61.13;35.40;;;;;;;11.88;84.69;101687.92;1645909;85;21062;-82
2021/10/07 08:49:21;;;;;;;59.65;33.85;;;;;;;11.95;84.70;101689.03;1632831;85;21579;-83
2021/10/07 08:51:47;;;;;;;62.65;35.08;;;;;;;12.01;84.70;101688.42;1620150;88;21111;-82
2021/10/07 08:54:14;;;;;;;59.00;35.25;;;;;;;12.03;84.71;101687.80;1617121;88;21529;-82
2021/10/07 08:56:40;;;;;;;62.15;35.65;;;;;;;12.08;84.69;101686.84;1615610;88;21951;-82
2021/10/07 08:59:06;;;;;;;56.02;33.02;;;;;;;12.13;84.67;101693.95;1602222;88;21076;-82
2021/10/07 09:01:44;;;;;;;67.45;36.63;;;;;;;12.21;84.67;101692.69;1595154;88;21069;-82
2021/10/07 09:04:29;;;;;;;60.00;34.13;;;;;;;12.23;84.71;101689.38;1636810;86;21102;-82
2021/10/07 09:07:02;;;;;;;65.28;34.63;;;;;;;12.27;84.69;101693.94;1639139;86;21094;-82
2021/10/07 09:09:29;;;;;;;71.25;37.75;;;;;;;12.27;84.71;101692.11;1647768;85;21183;-82
2021/10/07 09:12:05;;;;;;;72.20;39.55;;;;;;;12.30;84.69;101694.48;1623454;88;21084;-82
2021/10/07 09:14:34;;;;;;;70.60;37.85;;;;;;;12.34;84.72;101701.22;1587498;90;21093;-82
2021/10/07 09:17:00;;;;;;;64.67;35.28;;;;;;;12.37;84.70;101700.92;1589145;89;21555;-81
2021/10/07 09:19:30;;;;;;;71.65;38.02;;;;;;;12.36;84.70;101703.73;1637503;86;21096;-83
2021/10/07 09:21:59;;;;;;;95.83;60.25;;;;;;;12.38;84.68;101702.61;1631111;86;21092;-82
2021/10/07 09:24:29;;;;;;;76.70;42.07;;;;;;;12.43;84.68;101701.65;1620154;88;21517;-82
2021/10/07 09:27:19;;;;;;;112.75;69.85;;;;;;;12.48;84.67;101702.55;1638651;86;21035;-82
2021/10/07 09:29:51;;;;;;;90.92;50.45;;;;;;;12.52;84.66;101702.08;1619052;88;21111;-82
2021/10/07 09:32:47;;;;;;;72.03;39.55;;;;;;;12.63;84.67;101702.88;1648107;86;21054;-83
2021/10/07 09:35:19;;;;;;;74.80;38.08;;;;;;;12.73;84.64;101700.97;1645497;86;21102;-82
2021/10/07 09:37:48;;;;;;;66.20;37.75;;;;;;;12.75;84.66;101704.33;1638437;85;21041;-82
2021/10/07 09:40:24;;;;;;;73.15;38.67;;;;;;;12.75;84.61;101701.65;1645314;86;21030;-82
2021/10/07 09:42:56;;;;;;;79.95;40.25;;;;;;;12.79;84.65;101706.55;1629841;86;21111;-82
2021/10/07 09:45:32;;;;;;;74.65;41.60;;;;;;;12.87;84.63;101705.80;1619689;88;21067;-82
2021/10/07 09:48:04;;;;;;;71.60;40.98;;;;;;;12.95;84.64;101707.19;1615634;87;21245;-81
2021/10/07 09:50:36;;;;;;;77.67;41.37;;;;;;;13.00;84.59;101698.22;1622470;87;21129;-83
2021/10/07 09:53:11;;;;;;;68.07;40.55;;;;;;;13.05;84.60;101698.61;1611419;87;21062;-83
2021/10/07 09:55:43;;;;;;;67.55;40.25;;;;;;;13.15;84.60;101702.08;1611155;87;21014;-84
2021/10/07 09:58:23;;;;;;;63.63;38.73;;;;;;;13.27;84.55;101703.49;1611506;87;21066;-84
2021/10/07 10:00:56;;;;;;;69.72;38.95;;;;;;;13.34;84.53;101702.37;1612483;87;21136;-83
2021/10/07 10:03:23;;;;;;;63.85;39.60;;;;;;;13.42;84.51;101707.30;1620169;87;21038;-82
2021/10/07 10:05:50;;;;;;;58.13;37.10;;;;;;;13.46;84.46;101708.67;1614905;87;21537;-83
2021/10/07 10:08:19;;;;;;;61.00;37.55;;;;;;;13.55;84.44;101708.72;1617534;87;21034;-82
2021/10/07 10:10:47;;;;;;;65.00;39.55;;;;;;;13.62;84.41;101707.93;1617031;87;21519;-83
2021/10/07 10:13:15;;;;;;;67.70;39.40;;;;;;;13.69;84.42;101709.48;1619122;87;21169;-83
2021/10/07 10:15:41;;;;;;;65.83;38.42;;;;;;;13.74;84.37;101713.88;1611702;87;21047;-83
2021/10/07 10:18:09;;;;;;;64.62;37.90;;;;;;;13.76;84.34;101711.37;1619956;87;21011;-83
2021/10/07 10:20:41;;;;;;;59.55;37.25;;;;;;;13.75;84.30;101716.42;1615569;87;21113;-80
2021/10/07 10:23:13;;;;;;;60.20;38.13;;;;;;;13.74;84.24;101719.24;1613817;87;21550;-80
2021/10/07 10:26:08;;;;;;;62.58;37.83;;;;;;;13.71;84.23;101717.73;1613154;86;21284;-80
2021/10/07 10:28:55;;;;;;;65.52;38.92;;;;;;;13.72;84.22;101721.25;1616948;87;21018;-80
2021/10/07 10:31:29;;;;;;;61.23;37.25;;;;;;;13.75;84.19;101716.91;1618056;87;21027;-81
2021/10/07 10:34:17;;;;;;;62.65;38.90;;;;;;;13.81;84.18;101720.30;1621828;87;21059;-80
2021/10/07 10:36:57;;;;;;;66.40;38.67;;;;;;;13.89;84.13;101720.34;1619847;87;21038;-80
2021/10/07 10:39:36;;;;;;;63.60;37.63;;;;;;;13.97;84.06;101719.03;1611124;87;21772;-80
2021/10/07 10:42:08;;;;;;;56.37;38.87;;;;;;;14.01;84.02;101719.90;1611319;87;21526;-80
2021/10/07 10:44:41;;;;;;;61.37;40.50;;;;;;;13.99;83.97;101725.09;1619177;87;21020;-80
2021/10/07 10:47:12;;;;;;;66.72;39.42;;;;;;;13.95;83.92;101727.75;1617689;87;21702;-80
2021/10/07 10:49:49;;;;;;;60.95;40.33;;;;;;;13.91;83.89;101729.91;1611907;87;21997;-80
2021/10/07 10:52:38;;;;;;;61.55;40.03;;;;;;;13.91;83.86;101729.06;1610500;87;21536;-80
2021/10/07 10:55:18;;;;;;;60.52;39.92;;;;;;;13.91;83.83;101735.27;1619465;87;21665;-80
2021/10/07 10:57:50;;;;;;;64.45;42.33;;;;;;;13.96;83.78;101740.17;1626121;87;21037;-81
2021/10/07 11:00:30;;;;;;;57.83;39.55;;;;;;;14.01;83.76;101733.81;1622848;87;21057;-80
2021/10/07 11:03:23;;;;;;;58.08;41.05;;;;;;;14.08;83.73;101740.22;1597777;87;21026;-80
2021/10/07 11:06:04;;;;;;;61.08;40.00;;;;;;;14.09;83.66;101741.91;1609173;87;21609;-79
2021/10/07 11:08:45;;;;;;;62.85;41.13;;;;;;;14.15;83.62;101739.92;1588572;89;21065;-80
2021/10/07 11:11:26;;;;;;;57.80;40.85;;;;;;;14.25;83.58;101737.95;1585241;90;21081;-80
2021/10/07 11:13:57;;;;;;;57.05;41.37;;;;;;;14.36;83.53;101740.38;1617877;87;21058;-80
2021/10/07 11:16:21;;;;;;;64.95;43.17;;;;;;;14.45;83.42;101738.09;1644767;87;21512;-80
2021/10/07 11:18:49;;;;;;;57.23;40.23;;;;;;;14.52;83.36;101740.11;1646069;86;21101;-80
2021/10/07 11:21:18;;;;;;;59.25;40.98;;;;;;;14.55;83.30;101741.97;1647439;85;21034;-80